Time;durP1;ratioP1;P1;durP2;ratioP2;P2;SDS_P1;SDS_P2;PMS_P1;PMS_P2;Temp;Humidity;BMP_temperature;BMP_pressure;BME280_temperature;BME280_humidity;BME280_pressure;Samples;Min_cycle;Max_cycle;Signal;HPM_P1;HPM_P2
2022/09/15 00:01:12;;;;;;;10.48;6.63;;;;;;;17.77;61.69;99083.34;5044581;28;20024;-70
2022/09/15 00:03:38;;;;;;;7.72;6.43;;;;;;;17.48;62.99;99091.63;5033313;28;20155;-70
2022/09/15 00:06:05;;;;;;;10.45;5.40;;;;;;;17.21;64.00;99084.13;5033997;28;20112;-70
2022/09/15 00:08:30;;;;;;;9.60;5.68;;;;;;;17.14;64.16;99088.91;5032449;28;20025;-70
2022/09/15 00:11:21;;;;;;;8.48;5.72;;;;;;;16.81;65.29;99091.38;5032577;28;20396;-70
2022/09/15 00:13:47;;;;;;;10.18;5.80;;;;;;;16.72;65.82;99073.91;5033831;28;20018;-70
2022/09/15 00:16:14;;;;;;;12.55;6.28;;;;;;;16.98;65.20;99082.25;5044321;28;20029;-70
2022/09/15 00:18:40;;;;;;;6.13;5.35;;;;;;;17.07;64.61;99073.47;5052489;28;20108;-70
2022/09/15 00:21:08;;;;;;;5.70;5.03;;;;;;;16.95;65.13;99085.88;5052648;28;20513;-70
2022/09/15 00:23:33;;;;;;;9.25;6.10;;;;;;;16.91;65.36;99072.91;5053516;28;20021;-70
2022/09/15 00:25:59;;;;;;;6.78;4.80;;;;;;;16.90;65.01;99057.16;5053604;28;20392;-71
2022/09/15 00:28:24;;;;;;;11.40;5.63;;;;;;;17.05;64.98;99069.44;5050629;28;20029;-70
2022/09/15 00:30:52;;;;;;;15.15;5.55;;;;;;;17.12;64.46;99069.50;5033915;28;20076;-70
2022/09/15 00:33:20;;;;;;;5.15;4.65;;;;;;;17.19;64.11;99061.09;5033637;28;20192;-70
2022/09/15 00:35:47;;;;;;;7.28;4.68;;;;;;;17.24;63.78;99057.91;5032355;28;20036;-70
2022/09/15 00:38:14;;;;;;;8.07;4.47;;;;;;;17.25;63.75;99064.38;5033540;28;20472;-70
2022/09/15 00:40:50;;;;;;;7.18;5.00;;;;;;;17.17;63.98;99057.03;5033557;28;20033;-70
2022/09/15 00:43:17;;;;;;;6.00;4.80;;;;;;;17.19;63.80;99057.44;5033225;28;20049;-70
2022/09/15 00:45:43;;;;;;;9.45;5.25;;;;;;;17.20;63.46;99065.53;5032919;28;20029;-70
2022/09/15 00:48:16;;;;;;;11.27;5.63;;;;;;;17.18;63.41;99056.66;5033356;28;20496;-70
2022/09/15 00:50:48;;;;;;;6.63;4.72;;;;;;;17.50;62.55;99055.28;5033315;28;20112;-69
2022/09/15 00:53:16;;;;;;;11.25;4.35;;;;;;;17.60;62.56;99054.56;5043648;28;20526;-70
2022/09/15 00:55:46;;;;;;;4.93;4.43;;;;;;;17.47;62.51;99051.22;5053105;28;20078;-70
2022/09/15 00:58:28;;;;;;;11.43;4.85;;;;;;;17.20;63.28;99036.50;5051883;28;20020;-70
2022/09/15 01:01:00;;;;;;;5.45;4.75;;;;;;;17.29;63.23;99048.25;5053039;28;20452;-70
2022/09/15 01:03:28;;;;;;;12.45;6.07;;;;;;;17.67;62.33;99048.94;5052817;28;20076;-69
2022/09/15 01:06:07;;;;;;;7.93;5.72;;;;;;;17.29;62.71;99045.41;5051830;28;20024;-70
2022/09/15 01:08:40;;;;;;;9.70;5.55;;;;;;;17.20;63.07;99039.31;5040401;28;20032;-70
2022/09/15 01:11:06;;;;;;;10.65;4.97;;;;;;;17.15;63.33;99034.81;5033134;28;20036;-70
2022/09/15 01:13:31;;;;;;;9.05;5.50;;;;;;;17.29;63.30;99033.31;5033087;28;20380;-70
2022/09/15 01:16:03;;;;;;;10.60;5.95;;;;;;;17.50;62.68;99033.50;5031506;28;20028;-70
2022/09/15 01:18:36;;;;;;;6.45;5.25;;;;;;;17.12;63.68;99036.41;5032632;28;20022;-70
2022/09/15 01:21:19;;;;;;;7.20;5.65;;;;;;;16.83;64.63;99032.47;5032858;28;20025;-70
2022/09/15 01:24:22;;;;;;;6.30;5.15;;;;;;;16.97;64.33;99037.47;5032246;28;20068;-70
2022/09/15 01:26:59;;;;;;;6.43;4.93;;;;;;;17.21;63.40;99032.47;5032402;28;20032;-70
2022/09/15 01:29:36;;;;;;;8.00;5.10;;;;;;;17.29;63.15;99028.47;5032513;28;20025;-69
2022/09/15 01:35:01;;;;;;;11.48;6.53;;;;;;;16.67;65.38;99029.88;5032498;28;20048;-70
2022/09/15 01:37:32;;;;;;;11.63;5.90;;;;;;;16.38;65.89;99016.28;5031847;28;20503;-69
2022/09/15 01:40:00;;;;;;;10.85;6.25;;;;;;;16.73;65.44;99030.34;5032338;28;20123;-70
2022/09/15 01:42:27;;;;;;;7.90;5.78;;;;;;;17.13;63.96;99031.56;5032188;28;20022;-70
2022/09/15 01:45:00;;;;;;;10.77;6.28;;;;;;;16.82;64.73;99051.41;5032296;28;20120;-70
2022/09/15 01:47:28;;;;;;;11.52;6.53;;;;;;;16.52;65.62;99038.22;5032413;28;20021;-70
2022/09/15 01:50:10;;;;;;;8.23;6.45;;;;;;;16.38;65.98;99026.75;5032180;28;20022;-70
2022/09/15 01:52:42;;;;;;;13.27;6.88;;;;;;;16.06;67.05;99030.00;5031982;28;20086;-69
2022/09/15 01:55:15;;;;;;;6.32;5.72;;;;;;;16.14;66.95;99029.69;5032007;28;20025;-70
2022/09/15 01:57:41;;;;;;;7.40;6.18;;;;;;;16.53;66.02;99028.53;5032424;28;20021;-69
2022/09/15 02:00:07;;;;;;;10.57;5.35;;;;;;;16.88;64.72;99042.63;5032279;28;20079;-70
2022/09/15 02:02:41;;;;;;;6.18;5.10;;;;;;;17.05;63.95;99035.53;5031070;28;20017;-70
2022/09/15 02:05:15;;;;;;;7.60;5.10;;;;;;;17.05;63.85;99035.53;5031985;28;20100;-69
2022/09/15 02:07:52;;;;;;;7.72;5.97;;;;;;;16.71;64.79;99036.38;5043713;28;20036;-70
2022/09/15 02:10:39;;;;;;;15.05;6.18;;;;;;;16.60;65.66;99038.31;5052051;28;20480;-70
2022/09/15 02:13:15;;;;;;;19.35;6.68;;;;;;;16.57;65.90;99028.59;5051526;28;20021;-70
2022/09/15 02:15:50;;;;;;;13.60;5.25;;;;;;;16.50;65.92;99022.84;5051841;28;20479;-70
2022/09/15 02:18:35;;;;;;;9.85;6.55;;;;;;;16.36;66.75;99035.59;5051737;28;20025;-70
2022/09/15 02:21:22;;;;;;;7.18;5.20;;;;;;;16.56;66.29;99035.44;5047850;28;20618;-69
2022/09/15 02:23:53;;;;;;;6.88;5.97;;;;;;;16.68;65.91;99039.97;5031718;28;20029;-70
2022/09/15 02:26:24;;;;;;;14.02;6.07;;;;;;;16.58;66.31;99040.69;5031535;28;20033;-70
2022/09/15 02:28:50;;;;;;;;;;;;;;;16.37;67.11;99031.59;5030993;28;20036;-70
2022/09/15 02:31:19;;;;;;;8.35;5.55;;;;;;;16.30;67.76;99030.69;5031671;28;19963;-70
2022/09/15 02:33:52;;;;;;;16.00;7.53;;;;;;;15.99;68.47;99034.38;5037339;28;20091;-70
2022/09/15 02:36:19;;;;;;;10.30;6.82;;;;;;;16.07;68.36;99037.25;5031335;28;20041;-70
2022/09/15 02:38:57;;;;;;;13.77;8.15;;;;;;;15.78;69.71;99048.94;5031607;28;20025;-70
2022/09/15 02:41:22;;;;;;;10.77;8.18;;;;;;;15.76;69.74;99036.44;5031725;28;20017;-70
2022/09/15 02:43:48;;;;;;;12.43;7.88;;;;;;;15.88;69.37;99041.00;5031500;28;20482;-69
2022/09/15 02:46:17;;;;;;;8.35;6.45;;;;;;;15.92;68.73;99044.72;5031361;28;20412;-70
2022/09/15 02:48:42;;;;;;;8.25;6.15;;;;;;;16.04;68.59;99038.03;5043964;28;20474;-69
2022/09/15 02:51:08;;;;;;;6.88;5.35;;;;;;;15.96;68.51;99039.94;5031844;28;20033;-69
2022/09/15 02:53:35;;;;;;;9.52;6.28;;;;;;;15.83;68.70;99042.97;5031075;28;20449;-69
2022/09/15 02:56:02;;;;;;;7.72;6.22;;;;;;;15.83;68.76;99028.88;5030273;28;20028;-70
2022/09/15 02:58:27;;;;;;;7.63;6.25;;;;;;;15.74;69.42;99031.16;5031555;28;20120;-70
2022/09/15 03:00:55;;;;;;;8.25;6.47;;;;;;;15.61;69.75;99029.75;5031494;28;20025;-70
2022/09/15 03:03:21;;;;;;;9.82;6.88;;;;;;;15.58;70.08;99045.41;5031223;28;20423;-71
2022/09/15 03:05:46;;;;;;;10.23;5.38;;;;;;;15.49;70.49;99039.22;5029754;28;20025;-69
2022/09/15 03:08:12;;;;;;;13.38;7.13;;;;;;;15.42;71.00;99035.13;5033479;28;20381;-69
2022/09/15 03:10:38;;;;;;;7.88;6.13;;;;;;;15.42;70.70;99034.28;5035580;28;20025;-69
2022/09/15 03:13:03;;;;;;;12.65;6.53;;;;;;;15.50;70.95;99047.31;5043901;28;20468;-70
2022/09/15 03:15:29;;;;;;;11.50;6.60;;;;;;;15.52;70.75;99036.47;5055139;28;20483;-70
2022/09/15 03:17:54;;;;;;;9.88;6.15;;;;;;;15.83;69.51;99036.50;5051577;28;20085;-70
2022/09/15 03:20:29;;;;;;;9.90;6.50;;;;;;;15.65;69.78;99022.97;5049333;28;20028;-70
2022/09/15 03:22:54;;;;;;;8.35;5.25;;;;;;;15.68;69.96;99018.56;5054745;28;20029;-69
2022/09/15 03:25:20;;;;;;;7.65;6.20;;;;;;;15.89;69.26;99022.88;5054951;28;20021;-70
2022/09/15 03:27:46;;;;;;;8.70;6.78;;;;;;;15.79;69.33;99022.34;5055044;28;20025;-69
2022/09/15 03:30:13;;;;;;;6.88;5.65;;;;;;;15.90;68.78;99030.19;5055115;28;20468;-69
2022/09/15 03:32:39;;;;;;;9.55;6.47;;;;;;;15.81;69.06;99021.97;5040945;28;20021;-70
2022/09/15 03:35:05;;;;;;;8.85;6.75;;;;;;;15.73;68.95;99026.72;5050485;28;20025;-69
2022/09/15 03:37:31;;;;;;;10.73;7.22;;;;;;;15.71;69.25;99034.75;5046650;28;20097;-69
2022/09/15 03:39:57;;;;;;;10.93;7.13;;;;;;;15.56;69.99;99031.69;5034574;28;20087;-70
2022/09/15 03:42:22;;;;;;;8.55;6.28;;;;;;;15.50;69.61;99030.41;5040377;28;20078;-69
2022/09/15 03:44:48;;;;;;;13.40;6.97;;;;;;;15.39;69.92;99023.78;5051968;28;20045;-70
2022/09/15 03:47:13;;;;;;;11.13;7.68;;;;;;;15.40;69.63;99016.97;5054136;28;20086;-70
2022/09/15 03:49:39;;;;;;;13.75;6.78;;;;;;;15.34;69.70;99019.28;5035035;28;20021;-69
2022/09/15 03:52:04;;;;;;;12.18;6.50;;;;;;;15.62;68.92;99020.09;5039509;28;20101;-69
2022/09/15 03:54:30;;;;;;;7.45;6.57;;;;;;;16.00;68.09;99019.06;5051125;28;20021;-70
2022/09/15 03:56:55;;;;;;;13.75;6.07;;;;;;;16.20;66.82;99009.63;5053026;28;20434;-70
2022/09/15 03:59:21;;;;;;;9.50;5.53;;;;;;;16.35;66.13;99017.06;5040480;28;20435;-70
2022/09/15 04:01:47;;;;;;;8.05;5.90;;;;;;;16.36;65.63;99007.38;5034006;28;20027;-70
2022/09/15 04:04:13;;;;;;;15.98;6.28;;;;;;;16.49;65.29;99013.59;5033654;28;20064;-70
2022/09/15 04:06:40;;;;;;;6.22;5.30;;;;;;;16.57;64.41;99014.47;5033198;28;20082;-69
2022/09/15 04:09:06;;;;;;;11.70;6.07;;;;;;;16.56;64.52;99018.50;5042538;28;20094;-71
2022/09/15 04:11:31;;;;;;;28.75;6.55;;;;;;;16.66;64.12;99019.81;5053704;28;20028;-72
2022/09/15 04:13:57;;;;;;;18.67;6.13;;;;;;;16.73;63.94;99030.34;5043201;28;20385;-73
2022/09/15 04:16:24;;;;;;;21.75;6.43;;;;;;;16.70;64.01;99035.59;5033947;28;20037;-71
2022/09/15 04:18:51;;;;;;;11.45;5.97;;;;;;;16.32;65.44;99031.13;5038263;28;20029;-71
2022/09/15 04:21:20;;;;;;;10.95;5.78;;;;;;;16.04;66.99;99041.66;5033905;28;20496;-71
2022/09/15 04:23:46;;;;;;;16.73;5.90;;;;;;;16.21;66.90;99045.91;5033662;28;20454;-71
2022/09/15 04:26:28;;;;;;;11.00;5.43;;;;;;;16.31;66.83;99054.88;5033786;28;20029;-71
2022/09/15 04:28:54;;;;;;;8.57;5.35;;;;;;;16.07;67.88;99055.00;5043071;28;20033;-71
2022/09/15 04:31:19;;;;;;;12.50;5.22;;;;;;;15.76;68.99;99062.59;5047538;28;20028;-71
2022/09/15 04:33:46;;;;;;;14.05;6.95;;;;;;;15.45;70.82;99067.38;5033507;28;20052;-71
2022/09/15 04:36:16;;;;;;;7.75;6.05;;;;;;;15.28;72.37;99063.06;5033136;28;20580;-71
2022/09/15 04:38:42;;;;;;;10.90;5.85;;;;;;;15.34;72.20;99055.91;5032886;28;20519;-71
2022/09/15 04:41:10;;;;;;;10.43;6.32;;;;;;;15.35;72.02;99060.34;5033380;28;20540;-71
2022/09/15 04:43:36;;;;;;;12.68;6.80;;;;;;;15.48;71.81;99072.25;5032313;28;20424;-71
2022/09/15 04:46:02;;;;;;;12.52;5.38;;;;;;;15.67;71.07;99056.41;5032672;28;20068;-71
2022/09/15 04:48:29;;;;;;;18.85;7.10;;;;;;;15.66;70.92;99071.69;5033107;28;20029;-71
2022/09/15 04:51:13;;;;;;;22.38;6.35;;;;;;;15.68;70.24;99081.41;5033109;28;20029;-71
2022/09/15 04:53:39;;;;;;;13.23;5.95;;;;;;;15.85;69.94;99077.25;5038738;28;20025;-72
2022/09/15 04:56:07;;;;;;;10.35;5.95;;;;;;;15.97;69.54;99070.56;5033096;28;20032;-71
2022/09/15 04:58:42;;;;;;;15.02;6.20;;;;;;;15.94;69.48;99064.91;5037634;28;20019;-71
2022/09/15 05:01:13;;;;;;;22.27;6.85;;;;;;;16.13;68.96;99072.41;5051503;28;20059;-72
2022/09/15 05:03:40;;;;;;;14.38;5.45;;;;;;;16.34;68.50;99087.97;5035137;28;20095;-71
2022/09/15 05:06:07;;;;;;;8.13;4.65;;;;;;;16.53;67.38;99085.00;5033037;28;20400;-71
2022/09/15 05:08:33;;;;;;;9.93;5.05;;;;;;;16.73;67.00;99078.34;5032859;28;20022;-71
2022/09/15 05:11:00;;;;;;;12.50;5.22;;;;;;;16.70;66.71;99089.22;5031608;28;20083;-71
2022/09/15 05:13:26;;;;;;;20.67;6.55;;;;;;;16.75;66.57;99078.78;5044105;28;20033;-71
2022/09/15 05:15:51;;;;;;;16.52;5.78;;;;;;;17.04;65.91;99079.13;5040228;28;20056;-71
2022/09/15 05:18:17;;;;;;;15.02;6.45;;;;;;;16.92;66.11;99071.69;5037390;28;20087;-71
2022/09/15 05:20:42;;;;;;;20.80;7.72;;;;;;;17.00;65.76;99079.09;5031819;28;20032;-71
2022/09/15 05:23:07;;;;;;;13.90;5.78;;;;;;;17.09;65.99;99082.41;5033208;28;20021;-71
2022/09/15 05:25:33;;;;;;;14.05;5.45;;;;;;;17.24;65.26;99065.56;5044536;28;20025;-71
2022/09/15 05:27:58;;;;;;;15.18;6.90;;;;;;;17.57;64.63;99071.47;5032557;28;20021;-71
2022/09/15 05:30:24;;;;;;;17.73;5.78;;;;;;;17.81;64.04;99070.84;5033821;28;20059;-71
2022/09/15 05:32:49;;;;;;;12.32;6.13;;;;;;;18.02;63.40;99063.69;5032794;28;20022;-71
2022/09/15 05:35:15;;;;;;;14.38;5.00;;;;;;;18.00;63.14;99074.59;5043784;28;20071;-71
2022/09/15 05:37:40;;;;;;;7.90;4.97;;;;;;;18.19;62.58;99072.69;5040587;28;20025;-72
2022/09/15 05:40:06;;;;;;;12.77;5.97;;;;;;;18.53;62.64;99063.94;5030991;28;20032;-72
2022/09/15 05:42:31;;;;;;;10.32;4.90;;;;;;;18.80;61.35;99069.28;5040141;28;20099;-72
2022/09/15 05:44:57;;;;;;;10.07;4.90;;;;;;;18.94;60.72;99060.84;5032331;28;20479;-73
2022/09/15 05:47:22;;;;;;;15.15;7.22;;;;;;;19.18;60.40;99051.97;5035596;28;20074;-71
2022/09/15 05:49:48;;;;;;;14.27;6.15;;;;;;;18.89;61.05;99046.25;5030429;28;20075;-71
2022/09/15 05:52:13;;;;;;;16.63;7.38;;;;;;;19.17;60.35;99056.81;5050110;28;20063;-70
2022/09/15 05:54:39;;;;;;;16.50;8.75;;;;;;;19.12;60.39;99054.38;5038540;28;20025;-72
2022/09/15 05:57:04;;;;;;;30.52;8.20;;;;;;;19.04;59.94;99053.56;5051966;28;20017;-72
2022/09/15 05:59:30;;;;;;;21.40;6.57;;;;;;;19.08;60.03;99051.56;5049105;28;20399;-72
2022/09/15 06:01:55;;;;;;;25.42;9.63;;;;;;;19.26;58.93;99052.78;5036067;28;20025;-71
2022/09/15 06:04:21;;;;;;;18.52;7.55;;;;;;;19.42;58.07;99041.81;5044339;28;20024;-70
2022/09/15 06:06:46;;;;;;;42.03;7.75;;;;;;;19.62;57.22;99047.09;5032641;28;20017;-71
2022/09/15 06:09:11;;;;;;;28.02;5.88;;;;;;;19.74;56.53;99046.66;5036784;28;20028;-72
2022/09/15 06:11:37;;;;;;;16.33;4.93;;;;;;;19.96;56.23;99049.47;5032441;28;20026;-72
2022/09/15 06:14:04;;;;;;;8.43;4.13;;;;;;;20.13;55.07;99047.00;5032580;28;20033;-71
2022/09/15 06:16:32;;;;;;;14.68;5.07;;;;;;;20.28;55.29;99037.22;5034729;28;20480;-71
2022/09/15 06:18:59;;;;;;;16.58;5.95;;;;;;;20.40;54.71;99037.97;5036405;28;20031;-71
2022/09/15 06:21:28;;;;;;;12.43;4.97;;;;;;;20.64;54.06;99041.91;5040971;28;20028;-71
2022/09/15 06:23:59;;;;;;;26.25;6.25;;;;;;;20.79;53.06;99022.75;5039634;28;20458;-71
2022/09/15 06:26:26;;;;;;;21.15;6.65;;;;;;;20.97;53.66;99038.88;5032590;28;20037;-72
2022/09/15 06:28:57;;;;;;;12.50;4.30;;;;;;;21.14;54.37;99031.44;5038543;28;20068;-72
2022/09/15 06:31:24;;;;;;;22.80;4.43;;;;;;;21.18;53.78;99018.81;5033309;28;20029;-72
2022/09/15 06:33:51;;;;;;;25.15;5.00;;;;;;;21.09;53.06;99027.00;5041369;28;20094;-71
2022/09/15 06:36:18;;;;;;;16.77;4.65;;;;;;;21.21;53.19;99025.72;5036916;28;20525;-72
2022/09/15 06:38:44;;;;;;;7.80;3.63;;;;;;;21.26;52.63;99027.31;5035945;28;20048;-72
2022/09/15 06:41:11;;;;;;;9.65;4.07;;;;;;;21.42;53.36;99021.06;5039625;28;20034;-72
2022/09/15 06:43:37;;;;;;;14.27;4.15;;;;;;;21.68;52.21;99021.66;5046199;28;20052;-72
2022/09/15 06:46:08;;;;;;;8.27;3.92;;;;;;;21.90;51.35;99022.25;5051785;28;20487;-72
2022/09/15 06:48:34;;;;;;;11.38;4.63;;;;;;;22.12;50.69;99022.00;5054031;28;20025;-72
2022/09/15 06:51:01;;;;;;;10.85;3.03;;;;;;;22.19;50.48;99010.50;5055314;28;20490;-71
2022/09/15 06:53:30;;;;;;;9.48;3.38;;;;;;;22.38;49.05;99006.19;5051746;28;20052;-72
2022/09/15 06:56:01;;;;;;;4.30;2.97;;;;;;;22.42;49.61;99014.69;5038697;28;20512;-72
2022/09/15 06:58:27;;;;;;;10.68;3.42;;;;;;;22.50;48.34;99007.69;5035262;28;20490;-71
2022/09/15 07:00:52;;;;;;;11.27;2.97;;;;;;;22.39;46.83;99009.84;5044417;28;20033;-72
2022/09/15 07:03:18;;;;;;;5.25;3.00;;;;;;;22.56;46.89;99013.72;5034859;28;20052;-72
2022/09/15 07:05:45;;;;;;;10.00;3.38;;;;;;;22.69;46.32;99017.59;5045168;28;20044;-71
2022/09/15 07:08:11;;;;;;;10.70;3.03;;;;;;;22.76;46.41;99005.28;5032593;28;20022;-71
2022/09/15 07:10:36;;;;;;;6.85;3.17;;;;;;;22.93;45.92;99019.72;5040999;28;20028;-71
2022/09/15 07:13:02;;;;;;;9.90;2.60;;;;;;;23.07;45.34;99024.38;5052590;28;20028;-72
2022/09/15 07:15:28;;;;;;;20.95;3.72;;;;;;;23.17;46.58;99009.13;5049825;28;20495;-71
2022/09/15 07:17:53;;;;;;;18.13;3.95;;;;;;;23.27;46.31;99005.34;5049367;28;20533;-72
2022/09/15 07:20:19;;;;;;;15.43;3.55;;;;;;;23.40;45.50;99002.66;5039577;28;20029;-72
2022/09/15 07:22:44;;;;;;;12.02;2.92;;;;;;;23.62;44.22;99002.25;5043038;28;20029;-72
2022/09/15 07:25:09;;;;;;;9.18;2.63;;;;;;;23.71;44.24;98990.25;5051140;28;20090;-72
2022/09/15 07:27:35;;;;;;;4.97;2.90;;;;;;;23.87;44.30;98995.25;5049170;28;20021;-72
2022/09/15 07:30:01;;;;;;;9.52;3.92;;;;;;;23.97;43.68;98997.09;5040384;28;20030;-72
2022/09/15 07:32:26;;;;;;;9.88;2.80;;;;;;;24.01;44.69;98994.19;5044951;28;20031;-72
2022/09/15 07:34:52;;;;;;;10.27;3.92;;;;;;;24.14;43.05;99000.09;5052567;28;20032;-73
2022/09/15 07:37:17;;;;;;;13.18;3.20;;;;;;;24.13;42.84;99009.88;5050281;28;20375;-72
2022/09/15 07:39:43;;;;;;;7.15;2.75;;;;;;;24.32;43.33;99004.59;5048785;28;20455;-72
2022/09/15 07:42:08;;;;;;;20.77;3.92;;;;;;;24.58;41.58;99010.56;5041370;28;20026;-72
2022/09/15 07:44:34;;;;;;;12.95;3.08;;;;;;;24.69;41.45;99019.72;5038234;28;20474;-73
2022/09/15 07:46:59;;;;;;;11.45;3.47;;;;;;;24.84;41.62;99005.09;5050657;28;20072;-70
2022/09/15 07:49:25;;;;;;;10.40;2.92;;;;;;;24.97;41.54;99008.09;5054393;28;20078;-73
2022/09/15 07:51:50;;;;;;;6.30;2.80;;;;;;;25.11;41.96;99006.94;5050396;28;20108;-71
2022/09/15 07:54:16;;;;;;;15.07;3.22;;;;;;;25.31;42.26;99019.06;5044450;28;20064;-70
2022/09/15 07:56:41;;;;;;;40.25;4.75;;;;;;;25.13;42.12;99010.16;5042523;28;20022;-73
2022/09/15 07:59:07;;;;;;;35.50;5.00;;;;;;;25.38;42.92;99000.91;5052984;28;20032;-73
2022/09/15 08:01:32;;;;;;;10.65;2.72;;;;;;;25.46;41.17;99010.13;5037790;28;20562;-72
2022/09/15 08:03:58;;;;;;;9.43;3.38;;;;;;;25.47;40.71;99009.69;5045996;28;20029;-72
2022/09/15 08:06:25;;;;;;;7.93;3.15;;;;;;;25.31;40.50;98999.03;5052690;28;20021;-72
2022/09/15 08:08:51;;;;;;;8.18;2.60;;;;;;;25.29;40.71;98998.69;5042667;28;20511;-72
2022/09/15 08:11:18;;;;;;;5.82;3.00;;;;;;;25.37;40.45;99002.19;5034030;28;20026;-71
2022/09/15 08:13:44;;;;;;;12.07;3.45;;;;;;;25.46;40.42;98999.50;5035531;28;20079;-72
2022/09/15 08:16:15;;;;;;;4.57;3.10;;;;;;;25.60;41.21;98998.34;5033490;28;20029;-72
2022/09/15 08:18:42;;;;;;;6.65;2.72;;;;;;;25.74;39.21;99010.66;5033622;28;20487;-72
2022/09/15 08:21:11;;;;;;;10.02;2.53;;;;;;;25.81;38.89;99009.66;5039869;28;20491;-72
2022/09/15 08:23:37;;;;;;;9.48;2.00;;;;;;;26.01;38.39;99003.78;5048893;28;20104;-71
2022/09/15 08:26:09;;;;;;;5.43;2.33;;;;;;;26.31;38.16;99005.38;5045963;28;20060;-70
2022/09/15 08:28:36;;;;;;;4.30;2.53;;;;;;;26.59;38.04;98999.25;5043408;28;20036;-71
2022/09/15 08:31:05;;;;;;;4.75;2.63;;;;;;;26.51;37.29;98998.66;5051559;28;20464;-67
2022/09/15 08:33:30;;;;;;;12.38;2.88;;;;;;;26.80;37.47;99017.03;5047316;28;20126;-69
2022/09/15 08:36:02;;;;;;;8.65;1.98;;;;;;;27.04;34.90;99024.06;5034628;28;20024;-70
2022/09/15 08:38:27;;;;;;;7.70;2.60;;;;;;;27.13;34.23;99013.94;5034773;28;20025;-70
2022/09/15 08:41:00;;;;;;;5.47;2.45;;;;;;;27.26;35.58;99013.94;5030878;28;20897;-71
2022/09/15 08:43:32;;;;;;;3.55;2.28;;;;;;;27.38;33.91;99009.44;5031102;28;20046;-72
2022/09/15 08:46:04;;;;;;;7.60;2.22;;;;;;;27.36;34.10;99001.31;5032959;28;20029;-71
2022/09/15 08:48:38;;;;;;;5.25;2.63;;;;;;;27.41;33.63;99011.41;5032841;28;20565;-71
2022/09/15 08:51:10;;;;;;;5.78;2.03;;;;;;;27.36;33.09;99007.03;5037089;28;20372;-73
2022/09/15 08:53:42;;;;;;;8.48;2.30;;;;;;;27.58;33.54;99012.88;5038249;28;20097;-71
2022/09/15 08:56:16;;;;;;;8.55;2.25;;;;;;;27.74;33.61;99013.97;5032341;28;20026;-70
2022/09/15 08:58:44;;;;;;;7.53;2.10;;;;;;;27.84;32.62;99012.00;5040891;28;20396;-71
2022/09/15 09:01:10;;;;;;;12.90;3.33;;;;;;;28.05;32.61;99010.41;5045651;28;20124;-70
2022/09/15 09:03:36;;;;;;;4.93;2.55;;;;;;;28.11;32.93;99008.50;5033953;28;20104;-69
2022/09/15 09:06:10;;;;;;;15.25;2.88;;;;;;;28.22;32.52;99013.91;5039382;28;20078;-68
2022/09/15 09:08:48;;;;;;;10.25;2.42;;;;;;;28.20;31.95;99016.44;5039277;28;20065;-70
2022/09/15 09:11:26;;;;;;;5.53;2.80;;;;;;;28.19;32.75;99002.53;5034222;28;20025;-70
2022/09/15 09:14:02;;;;;;;6.05;2.67;;;;;;;28.20;32.48;99001.25;5036863;28;20053;-70
2022/09/15 09:16:44;;;;;;;6.25;2.60;;;;;;;28.18;32.80;98996.00;5036654;28;20092;-70
2022/09/15 09:19:52;;;;;;;4.65;2.55;;;;;;;28.35;31.80;98987.16;5042332;28;20155;-70
2022/09/15 09:22:24;;;;;;;14.52;3.70;;;;;;;28.55;32.30;98992.53;5029064;28;20068;-70
2022/09/15 09:24:52;;;;;;;9.82;2.85;;;;;;;28.56;32.43;98983.44;5037101;28;20612;-68
2022/09/15 09:27:25;;;;;;;9.20;3.03;;;;;;;28.58;32.16;98980.06;5031997;28;20029;-69
2022/09/15 09:30:06;;;;;;;6.95;2.35;;;;;;;28.71;31.47;98972.16;5035137;28;20037;-69
2022/09/15 09:32:43;;;;;;;14.93;3.47;;;;;;;28.90;33.08;98971.44;5033086;28;20024;-69
2022/09/15 09:35:23;;;;;;;6.55;3.22;;;;;;;28.81;32.29;98960.69;5039926;28;20021;-70
2022/09/15 09:37:51;;;;;;;21.20;4.15;;;;;;;29.10;32.13;98959.53;5037275;28;20082;-69
2022/09/15 09:40:18;;;;;;;10.10;3.28;;;;;;;29.27;31.25;98951.41;5031320;28;20400;-68
2022/09/15 09:42:44;;;;;;;22.92;4.90;;;;;;;29.45;31.53;98956.44;5033006;28;20056;-69
2022/09/15 09:45:17;;;;;;;13.23;2.67;;;;;;;29.58;31.09;98946.84;5033955;28;20025;-69
2022/09/15 09:47:43;;;;;;;9.40;2.92;;;;;;;29.55;30.45;98942.81;5034021;28;20419;-69
2022/09/15 09:50:33;;;;;;;6.10;2.25;;;;;;;29.68;30.79;98945.53;5031892;28;20040;-68
2022/09/15 09:52:59;;;;;;;10.45;2.97;;;;;;;29.63;31.70;98934.66;5035166;28;20035;-69
2022/09/15 09:55:26;;;;;;;5.95;2.80;;;;;;;29.94;32.08;98931.59;5037656;28;20107;-68
2022/09/15 09:57:53;;;;;;;14.10;2.80;;;;;;;29.90;30.71;98933.84;5031241;28;20021;-69
2022/09/15 10:00:30;;;;;;;10.65;3.17;;;;;;;29.58;31.49;98927.47;5039769;28;20025;-70
2022/09/15 10:02:55;;;;;;;13.27;3.47;;;;;;;29.66;30.67;98913.53;5038492;28;20102;-68
2022/09/15 10:05:21;;;;;;;8.23;3.17;;;;;;;29.94;31.04;98914.31;5036634;28;20488;-68
2022/09/15 10:07:47;;;;;;;10.40;3.10;;;;;;;30.03;30.70;98919.25;5038546;28;20044;-69
2022/09/15 10:10:22;;;;;;;9.27;3.47;;;;;;;30.07;30.93;98928.56;5030786;28;20025;-69
2022/09/15 10:12:49;;;;;;;16.15;3.10;;;;;;;30.14;31.52;98915.09;5034805;28;20017;-71
2022/09/15 10:15:27;;;;;;;11.23;3.08;;;;;;;30.27;30.91;98918.56;5033735;28;20469;-69
2022/09/15 10:17:54;;;;;;;7.25;2.92;;;;;;;30.40;31.15;98903.97;5040476;28;20021;-72
2022/09/15 10:20:34;;;;;;;9.15;3.08;;;;;;;30.56;30.49;98902.78;5031402;28;20025;-68
2022/09/15 10:23:20;;;;;;;;;;;;;;;30.50;31.36;98910.47;5033366;28;20025;-72
2022/09/15 10:25:46;;;;;;;11.27;4.50;;;;;;;30.47;31.01;98897.03;5035319;28;19923;-72
2022/09/15 10:28:17;;;;;;;11.52;3.45;;;;;;;30.72;30.88;98895.03;5045093;28;20051;-70
2022/09/15 10:31:15;;;;;;;5.57;3.42;;;;;;;30.51;30.75;98897.66;5037362;28;20443;-70
2022/09/15 10:33:44;;;;;;;11.43;3.22;;;;;;;30.72;30.58;98895.84;5038982;28;20040;-71
2022/09/15 10:36:17;;;;;;;16.02;3.50;;;;;;;30.92;30.93;98894.44;5030470;28;20379;-71
2022/09/15 10:38:44;;;;;;;15.85;3.40;;;;;;;30.99;30.10;98882.53;5040328;28;20084;-71
2022/09/15 10:41:30;;;;;;;14.70;3.55;;;;;;;31.32;29.75;98878.00;5035670;28;20037;-72
2022/09/15 10:44:19;;;;;;;13.57;3.03;;;;;;;30.92;29.70;98872.16;5033167;28;21199;-72
2022/09/15 10:46:52;;;;;;;9.27;4.00;;;;;;;30.93;29.90;98891.06;5031837;28;20127;-72
2022/09/15 10:49:39;;;;;;;10.40;3.30;;;;;;;31.20;30.04;98886.38;5037096;28;20449;-71
2022/09/15 10:52:15;;;;;;;7.65;3.30;;;;;;;31.10;29.69;98882.78;5033076;28;20040;-71
2022/09/15 10:54:44;;;;;;;14.48;7.25;;;;;;;31.15;29.96;98884.19;5031160;28;20061;-72
2022/09/15 10:57:44;;;;;;;7.35;3.58;;;;;;;31.29;29.30;98876.09;5030973;28;20033;-71
2022/09/15 11:00:30;;;;;;;17.88;7.50;;;;;;;31.52;29.47;98862.88;5045150;28;20033;-72
2022/09/15 11:03:31;;;;;;;14.27;3.65;;;;;;;31.73;29.39;98855.13;5035436;28;20033;-71
2022/09/15 11:06:05;;;;;;;7.30;2.90;;;;;;;31.96;29.72;98852.69;5040808;28;20041;-72
2022/09/15 11:09:07;;;;;;;16.50;3.88;;;;;;;31.78;30.97;98853.66;5043243;28;20028;-73
2022/09/15 11:12:06;;;;;;;11.27;2.95;;;;;;;31.97;30.74;98839.81;5037708;28;20136;-71
2022/09/15 11:14:46;;;;;;;7.60;3.70;;;;;;;32.10;30.06;98824.25;5050931;28;20055;-71
2022/09/15 11:17:23;;;;;;;;;;;;;;;31.97;29.56;98839.81;5035711;28;20017;-71
2022/09/15 11:20:04;;;;;;;12.75;4.05;;;;;;;32.11;28.17;98840.34;5035945;28;19951;-71
2022/09/15 11:23:04;;;;;;;18.33;4.50;;;;;;;32.27;28.79;98824.53;5050935;28;20025;-70
2022/09/15 11:25:31;;;;;;;;;;;;;;;32.37;27.40;98828.16;5036067;28;20037;-72
2022/09/15 11:28:08;;;;;;;13.02;3.72;;;;;;;32.27;28.13;98816.66;5037235;28;19983;-71
2022/09/15 11:30:40;;;;;;;18.17;4.10;;;;;;;32.37;26.85;98825.25;5037866;28;20519;-73
2022/09/15 11:33:31;;;;;;;9.65;3.17;;;;;;;32.37;28.14;98825.25;5039972;28;20041;-70
2022/09/15 11:36:07;;;;;;;14.73;3.50;;;;;;;32.25;26.70;98816.38;5037849;28;20021;-71
2022/09/15 11:38:33;;;;;;;21.27;6.30;;;;;;;32.56;28.79;98817.91;5035570;28;20021;-71
2022/09/15 11:41:32;;;;;;;15.52;5.60;;;;;;;32.54;28.71;98814.72;5049177;28;20090;-73
2022/09/15 11:44:18;;;;;;;16.55;5.05;;;;;;;32.54;29.30;98808.94;5043758;28;20071;-75
2022/09/15 11:47:03;;;;;;;13.88;5.18;;;;;;;32.62;30.13;98807.22;5039705;28;20029;-73